sensor_id;sensor_type;location;lat;lon;timestamp;temperature;humidity
1956;DHT22;978;48.314;11.562;2023-04-03T00:00:37;20.70;73.70
1956;DHT22;978;48.314;11.562;2023-04-03T00:03:04;20.70;73.60
1956;DHT22;978;48.314;11.562;2023-04-03T00:05:32;20.70;73.60
1956;DHT22;978;48.314;11.562;2023-04-03T00:07:59;20.70;73.70
1956;DHT22;978;48.314;11.562;2023-04-03T00:10:27;20.70;73.60
1956;DHT22;978;48.314;11.562;2023-04-03T00:12:54;20.70;73.60
1956;DHT22;978;48.314;11.562;2023-04-03T00:15:21;20.70;73.60
1956;DHT22;978;48.314;11.562;2023-04-03T00:17:47;20.70;73.60
1956;DHT22;978;48.314;11.562;2023-04-03T00:20:14;20.70;73.60
1956;DHT22;978;48.314;11.562;2023-04-03T00:22:42;20.70;73.60
1956;DHT22;978;48.314;11.562;2023-04-03T00:25:09;20.70;73.60
1956;DHT22;978;48.314;11.562;2023-04-03T00:27:36;20.70;74.10
1956;DHT22;978;48.314;11.562;2023-04-03T00:30:04;20.70;73.50
1956;DHT22;978;48.314;11.562;2023-04-03T00:32:31;20.70;73.50
1956;DHT22;978;48.314;11.562;2023-04-03T00:34:58;20.70;73.50
1956;DHT22;978;48.314;11.562;2023-04-03T00:37:24;20.70;73.60
1956;DHT22;978;48.314;11.562;2023-04-03T00:39:52;20.70;73.30
1956;DHT22;978;48.314;11.562;2023-04-03T00:42:19;20.70;73.40
1956;DHT22;978;48.314;11.562;2023-04-03T00:45:22;20.70;73.40
1956;DHT22;978;48.314;11.562;2023-04-03T00:47:50;20.70;73.40
1956;DHT22;978;48.314;11.562;2023-04-03T00:50:17;20.70;73.30
1956;DHT22;978;48.314;11.562;2023-04-03T00:52:44;20.70;73.40
1956;DHT22;978;48.314;11.562;2023-04-03T00:55:16;20.70;73.40
1956;DHT22;978;48.314;11.562;2023-04-03T00:57:43;20.70;73.30
1956;DHT22;978;48.314;11.562;2023-04-03T01:00:15;20.70;73.20
1956;DHT22;978;48.314;11.562;2023-04-03T01:02:43;20.70;73.40
1956;DHT22;978;48.314;11.562;2023-04-03T01:05:10;20.70;73.30
1956;DHT22;978;48.314;11.562;2023-04-03T01:07:38;20.70;73.30
1956;DHT22;978;48.314;11.562;2023-04-03T01:10:08;20.70;73.30
1956;DHT22;978;48.314;11.562;2023-04-03T01:12:38;20.70;73.30
1956;DHT22;978;48.314;11.562;2023-04-03T01:15:07;20.70;73.30
1956;DHT22;978;48.314;11.562;2023-04-03T01:17:36;20.70;73.20
1956;DHT22;978;48.314;11.562;2023-04-03T01:23:14;20.70;73.10
1956;DHT22;978;48.314;11.562;2023-04-03T01:25:47;20.70;73.10
1956;DHT22;978;48.314;11.562;2023-04-03T01:28:18;20.70;73.10
1956;DHT22;978;48.314;11.562;2023-04-03T01:30:47;20.70;72.90
1956;DHT22;978;48.314;11.562;2023-04-03T01:33:16;20.70;73.20
1956;DHT22;978;48.314;11.562;2023-04-03T01:35:43;20.70;73.10
1956;DHT22;978;48.314;11.562;2023-04-03T01:38:10;20.70;73.10
1956;DHT22;978;48.314;11.562;2023-04-03T01:40:37;20.70;73.00
1956;DHT22;978;48.314;11.562;2023-04-03T01:43:04;20.70;72.90
1956;DHT22;978;48.314;11.562;2023-04-03T01:45:31;20.70;72.70
1956;DHT22;978;48.314;11.562;2023-04-03T01:47:57;20.70;72.70
1956;DHT22;978;48.314;11.562;2023-04-03T01:50:25;20.70;72.60
1956;DHT22;978;48.314;11.562;2023-04-03T01:52:52;20.70;72.80
1956;DHT22;978;48.314;11.562;2023-04-03T01:55:19;20.70;72.70
1956;DHT22;978;48.314;11.562;2023-04-03T01:57:45;20.70;72.60
1956;DHT22;978;48.314;11.562;2023-04-03T02:00:13;20.70;72.50
1956;DHT22;978;48.314;11.562;2023-04-03T02:02:40;20.70;73.20
1956;DHT22;978;48.314;11.562;2023-04-03T02:05:07;20.70;72.70
1956;DHT22;978;48.314;11.562;2023-04-03T02:07:35;20.70;72.50
1956;DHT22;978;48.314;11.562;2023-04-03T02:10:02;20.70;72.50
1956;DHT22;978;48.314;11.562;2023-04-03T02:12:29;20.70;72.50
1956;DHT22;978;48.314;11.562;2023-04-03T02:14:56;20.70;72.40
1956;DHT22;978;48.314;11.562;2023-04-03T02:17:23;20.70;72.40
1956;DHT22;978;48.314;11.562;2023-04-03T02:19:49;20.70;73.10
1956;DHT22;978;48.314;11.562;2023-04-03T02:22:16;20.70;72.50
1956;DHT22;978;48.314;11.562;2023-04-03T02:24:44;20.70;72.30
1956;DHT22;978;48.314;11.562;2023-04-03T02:27:11;20.70;72.40
1956;DHT22;978;48.314;11.562;2023-04-03T02:29:38;20.70;72.60
1956;DHT22;978;48.314;11.562;2023-04-03T02:32:05;20.70;72.30
1956;DHT22;978;48.314;11.562;2023-04-03T02:34:32;20.70;72.30
1956;DHT22;978;48.314;11.562;2023-04-03T02:36:58;20.70;72.30
1956;DHT22;978;48.314;11.562;2023-04-03T02:39:25;20.70;72.30
1956;DHT22;978;48.314;11.562;2023-04-03T02:41:53;20.70;72.20
1956;DHT22;978;48.314;11.562;2023-04-03T02:44:20;20.70;72.20
1956;DHT22;978;48.314;11.562;2023-04-03T02:46:49;20.70;72.30
1956;DHT22;978;48.314;11.562;2023-04-03T02:49:15;20.70;72.20
1956;DHT22;978;48.314;11.562;2023-04-03T02:51:42;20.70;72.00
1956;DHT22;978;48.314;11.562;2023-04-03T02:54:09;20.70;72.00
1956;DHT22;978;48.314;11.562;2023-04-03T02:56:35;20.70;72.10
1956;DHT22;978;48.314;11.562;2023-04-03T02:59:03;20.70;71.90
1956;DHT22;978;48.314;11.562;2023-04-03T03:01:30;20.70;72.10
1956;DHT22;978;48.314;11.562;2023-04-03T03:03:58;20.70;72.10
1956;DHT22;978;48.314;11.562;2023-04-03T03:06:25;20.70;72.00
1956;DHT22;978;48.314;11.562;2023-04-03T03:08:52;20.70;71.90
1956;DHT22;978;48.314;11.562;2023-04-03T03:11:18;20.70;71.70
1956;DHT22;978;48.314;11.562;2023-04-03T03:13:45;20.70;72.10
1956;DHT22;978;48.314;11.562;2023-04-03T03:16:13;20.70;71.90
1956;DHT22;978;48.314;11.562;2023-04-03T03:18:40;20.70;71.70
1956;DHT22;978;48.314;11.562;2023-04-03T03:21:07;20.70;71.90
1956;DHT22;978;48.314;11.562;2023-04-03T03:23:35;20.70;71.90
1956;DHT22;978;48.314;11.562;2023-04-03T03:26:04;20.70;72.00
1956;DHT22;978;48.314;11.562;2023-04-03T03:28:31;20.70;71.90
1956;DHT22;978;48.314;11.562;2023-04-03T03:30:58;20.70;71.80
1956;DHT22;978;48.314;11.562;2023-04-03T03:33:26;20.70;71.80
1956;DHT22;978;48.314;11.562;2023-04-03T03:35:53;20.70;71.90
1956;DHT22;978;48.314;11.562;2023-04-03T03:38:21;20.70;71.80
1956;DHT22;978;48.314;11.562;2023-04-03T03:40:48;20.70;71.90
1956;DHT22;978;48.314;11.562;2023-04-03T03:43:15;20.70;71.90
1956;DHT22;978;48.314;11.562;2023-04-03T03:45:42;20.70;71.90
1956;DHT22;978;48.314;11.562;2023-04-03T03:48:08;20.70;71.70
1956;DHT22;978;48.314;11.562;2023-04-03T03:50:37;20.70;71.70
1956;DHT22;978;48.314;11.562;2023-04-03T03:53:03;20.70;71.70
1956;DHT22;978;48.314;11.562;2023-04-03T03:55:30;20.70;71.80
1956;DHT22;978;48.314;11.562;2023-04-03T03:57:57;20.70;71.60
1956;DHT22;978;48.314;11.562;2023-04-03T04:00:24;20.70;71.70
1956;DHT22;978;48.314;11.562;2023-04-03T04:02:50;20.70;71.50
1956;DHT22;978;48.314;11.562;2023-04-03T04:05:17;20.70;71.60
1956;DHT22;978;48.314;11.562;2023-04-03T04:07:45;20.70;71.70
1956;DHT22;978;48.314;11.562;2023-04-03T04:10:12;20.70;71.70
1956;DHT22;978;48.314;11.562;2023-04-03T04:12:39;20.70;71.60
1956;DHT22;978;48.314;11.562;2023-04-03T04:15:07;20.70;71.50
1956;DHT22;978;48.314;11.562;2023-04-03T04:17:34;20.70;71.60
1956;DHT22;978;48.314;11.562;2023-04-03T04:20:01;20.70;71.50
1956;DHT22;978;48.314;11.562;2023-04-03T04:22:28;20.70;71.50
1956;DHT22;978;48.314;11.562;2023-04-03T04:24:56;20.70;71.40
1956;DHT22;978;48.314;11.562;2023-04-03T04:27:23;20.70;71.60
1956;DHT22;978;48.314;11.562;2023-04-03T04:29:49;20.70;71.50
1956;DHT22;978;48.314;11.562;2023-04-03T04:32:16;20.70;71.40
1956;DHT22;978;48.314;11.562;2023-04-03T04:34:43;20.70;71.30
1956;DHT22;978;48.314;11.562;2023-04-03T04:37:09;20.70;71.40
1956;DHT22;978;48.314;11.562;2023-04-03T04:39:36;20.70;71.40
1956;DHT22;978;48.314;11.562;2023-04-03T04:42:04;20.70;71.30
1956;DHT22;978;48.314;11.562;2023-04-03T04:44:32;20.60;71.40
1956;DHT22;978;48.314;11.562;2023-04-03T04:46:59;20.70;71.20
1956;DHT22;978;48.314;11.562;2023-04-03T04:49:26;20.70;71.40
1956;DHT22;978;48.314;11.562;2023-04-03T04:51:52;20.70;71.30
1956;DHT22;978;48.314;11.562;2023-04-03T04:54:19;20.70;71.40
1956;DHT22;978;48.314;11.562;2023-04-03T04:56:46;20.70;71.30
1956;DHT22;978;48.314;11.562;2023-04-03T04:59:14;20.70;71.30
1956;DHT22;978;48.314;11.562;2023-04-03T05:01:41;20.70;71.30
1956;DHT22;978;48.314;11.562;2023-04-03T05:04:08;20.70;71.30
1956;DHT22;978;48.314;11.562;2023-04-03T05:06:35;20.70;71.30
1956;DHT22;978;48.314;11.562;2023-04-03T05:09:02;20.70;71.20
1956;DHT22;978;48.314;11.562;2023-04-03T05:11:29;20.70;71.30
1956;DHT22;978;48.314;11.562;2023-04-03T05:13:56;20.70;71.30
1956;DHT22;978;48.314;11.562;2023-04-03T05:16:24;20.70;71.20
1956;DHT22;978;48.314;11.562;2023-04-03T05:18:50;20.70;71.20
1956;DHT22;978;48.314;11.562;2023-04-03T05:21:17;20.70;71.20
1956;DHT22;978;48.314;11.562;2023-04-03T05:23:44;20.70;71.20
1956;DHT22;978;48.314;11.562;2023-04-03T05:26:11;20.70;71.20
1956;DHT22;978;48.314;11.562;2023-04-03T05:28:38;20.70;71.20
1956;DHT22;978;48.314;11.562;2023-04-03T05:31:04;20.70;71.10
1956;DHT22;978;48.314;11.562;2023-04-03T05:33:32;20.60;71.10
1956;DHT22;978;48.314;11.562;2023-04-03T05:36:02;20.60;71.00
1956;DHT22;978;48.314;11.562;2023-04-03T05:38:30;20.60;71.00
1956;DHT22;978;48.314;11.562;2023-04-03T05:40:56;20.60;71.10
1956;DHT22;978;48.314;11.562;2023-04-03T05:43:23;20.70;72.20
1956;DHT22;978;48.314;11.562;2023-04-03T05:45:50;20.70;72.40
1956;DHT22;978;48.314;11.562;2023-04-03T05:48:17;20.70;72.30
1956;DHT22;978;48.314;11.562;2023-04-03T05:50:45;20.70;72.30
1956;DHT22;978;48.314;11.562;2023-04-03T05:53:16;20.70;72.30
1956;DHT22;978;48.314;11.562;2023-04-03T05:55:44;20.70;72.20
1956;DHT22;978;48.314;11.562;2023-04-03T05:58:11;20.70;72.30
1956;DHT22;978;48.314;11.562;2023-04-03T06:00:37;20.70;72.30
1956;DHT22;978;48.314;11.562;2023-04-03T06:03:04;20.70;72.00
1956;DHT22;978;48.314;11.562;2023-04-03T06:05:31;20.70;72.50
1956;DHT22;978;48.314;11.562;2023-04-03T06:07:59;20.70;72.50
1956;DHT22;978;48.314;11.562;2023-04-03T06:10:26;20.70;72.00
1956;DHT22;978;48.314;11.562;2023-04-03T06:12:53;20.70;72.40
1956;DHT22;978;48.314;11.562;2023-04-03T06:15:20;20.70;72.20
1956;DHT22;978;48.314;11.562;2023-04-03T06:17:47;20.70;72.40
1956;DHT22;978;48.314;11.562;2023-04-03T06:20:14;20.70;72.20
1956;DHT22;978;48.314;11.562;2023-04-03T06:22:41;20.70;72.20
1956;DHT22;978;48.314;11.562;2023-04-03T06:25:09;20.70;72.50
1956;DHT22;978;48.314;11.562;2023-04-03T06:27:36;20.70;72.20
1956;DHT22;978;48.314;11.562;2023-04-03T06:30:04;20.70;72.30
1956;DHT22;978;48.314;11.562;2023-04-03T06:32:31;20.70;72.10
1956;DHT22;978;48.314;11.562;2023-04-03T06:34:58;20.70;72.10
1956;DHT22;978;48.314;11.562;2023-04-03T06:37:25;20.70;72.80
1956;DHT22;978;48.314;11.562;2023-04-03T06:39:54;20.70;72.10
1956;DHT22;978;48.314;11.562;2023-04-03T06:42:22;20.70;72.10
1956;DHT22;978;48.314;11.562;2023-04-03T06:44:49;20.70;72.10
1956;DHT22;978;48.314;11.562;2023-04-03T06:47:17;20.70;72.20
1956;DHT22;978;48.314;11.562;2023-04-03T06:49:44;20.70;72.10
1956;DHT22;978;48.314;11.562;2023-04-03T06:52:11;20.70;72.10
1956;DHT22;978;48.314;11.562;2023-04-03T06:54:38;20.70;72.10
1956;DHT22;978;48.314;11.562;2023-04-03T06:57:05;20.70;72.00
1956;DHT22;978;48.314;11.562;2023-04-03T06:59:33;20.70;72.00
1956;DHT22;978;48.314;11.562;2023-04-03T07:02:00;20.70;71.90
1956;DHT22;978;48.314;11.562;2023-04-03T07:04:27;20.70;72.00
1956;DHT22;978;48.314;11.562;2023-04-03T07:06:53;20.70;72.10
1956;DHT22;978;48.314;11.562;2023-04-03T07:09:20;20.70;72.00
1956;DHT22;978;48.314;11.562;2023-04-03T07:11:47;20.70;72.00
1956;DHT22;978;48.314;11.562;2023-04-03T07:14:13;20.70;71.90
1956;DHT22;978;48.314;11.562;2023-04-03T07:16:41;20.70;72.00
1956;DHT22;978;48.314;11.562;2023-04-03T07:19:08;20.70;71.90
1956;DHT22;978;48.314;11.562;2023-04-03T07:21:35;20.70;71.90
1956;DHT22;978;48.314;11.562;2023-04-03T07:24:02;20.70;71.70
1956;DHT22;978;48.314;11.562;2023-04-03T07:26:28;20.70;71.80
1956;DHT22;978;48.314;11.562;2023-04-03T07:28:55;20.70;71.70
1956;DHT22;978;48.314;11.562;2023-04-03T07:31:22;20.70;71.70
1956;DHT22;978;48.314;11.562;2023-04-03T07:33:52;20.70;71.80
1956;DHT22;978;48.314;11.562;2023-04-03T07:36:21;20.70;71.80
1956;DHT22;978;48.314;11.562;2023-04-03T07:38:48;20.70;71.70
1956;DHT22;978;48.314;11.562;2023-04-03T07:41:16;20.70;71.70
1956;DHT22;978;48.314;11.562;2023-04-03T07:43:44;20.70;71.70
1956;DHT22;978;48.314;11.562;2023-04-03T07:46:12;20.70;71.70
1956;DHT22;978;48.314;11.562;2023-04-03T07:48:39;20.70;71.60
1956;DHT22;978;48.314;11.562;2023-04-03T07:51:07;20.70;71.70
1956;DHT22;978;48.314;11.562;2023-04-03T07:53:34;20.70;72.20
1956;DHT22;978;48.314;11.562;2023-04-03T07:56:01;20.70;71.60
1956;DHT22;978;48.314;11.562;2023-04-03T07:58:28;20.70;71.70
1956;DHT22;978;48.314;11.562;2023-04-03T08:00:55;20.70;71.60
1956;DHT22;978;48.314;11.562;2023-04-03T08:03:22;20.70;71.60
1956;DHT22;978;48.314;11.562;2023-04-03T08:05:49;20.70;71.50
1956;DHT22;978;48.314;11.562;2023-04-03T08:08:19;20.70;71.30
1956;DHT22;978;48.314;11.562;2023-04-03T08:10:49;20.70;70.70
1956;DHT22;978;48.314;11.562;2023-04-03T08:13:16;20.60;70.50
1956;DHT22;978;48.314;11.562;2023-04-03T08:15:43;20.70;70.20
1956;DHT22;978;48.314;11.562;2023-04-03T08:18:10;20.70;69.70
1956;DHT22;978;48.314;11.562;2023-04-03T08:20:38;20.70;69.70
1956;DHT22;978;48.314;11.562;2023-04-03T08:23:05;20.70;70.20
1956;DHT22;978;48.314;11.562;2023-04-03T08:25:33;20.70;69.60
1956;DHT22;978;48.314;11.562;2023-04-03T08:28:00;20.70;69.20
1956;DHT22;978;48.314;11.562;2023-04-03T08:30:27;20.70;68.90
1956;DHT22;978;48.314;11.562;2023-04-03T08:32:54;20.60;69.00
1956;DHT22;978;48.314;11.562;2023-04-03T08:35:20;20.60;68.70
1956;DHT22;978;48.314;11.562;2023-04-03T08:37:47;20.60;68.60
1956;DHT22;978;48.314;11.562;2023-04-03T08:40:16;20.60;68.50
1956;DHT22;978;48.314;11.562;2023-04-03T08:42:56;20.60;68.30
1956;DHT22;978;48.314;11.562;2023-04-03T08:45:38;20.70;68.70
1956;DHT22;978;48.314;11.562;2023-04-03T08:48:12;20.70;68.00
1956;DHT22;978;48.314;11.562;2023-04-03T08:50:43;20.70;67.80
1956;DHT22;978;48.314;11.562;2023-04-03T08:53:14;20.70;67.60
1956;DHT22;978;48.314;11.562;2023-04-03T08:55:43;20.60;68.00
1956;DHT22;978;48.314;11.562;2023-04-03T08:58:15;20.70;67.80
1956;DHT22;978;48.314;11.562;2023-04-03T09:00:46;20.70;68.00
1956;DHT22;978;48.314;11.562;2023-04-03T09:03:15;20.60;67.40
1956;DHT22;978;48.314;11.562;2023-04-03T09:05:47;20.60;67.10
1956;DHT22;978;48.314;11.562;2023-04-03T09:08:22;20.60;67.20
1956;DHT22;978;48.314;11.562;2023-04-03T09:10:57;20.70;67.10
1956;DHT22;978;48.314;11.562;2023-04-03T09:13:30;20.60;66.50
1956;DHT22;978;48.314;11.562;2023-04-03T09:16:02;20.60;66.50
1956;DHT22;978;48.314;11.562;2023-04-03T09:18:36;20.60;66.20
1956;DHT22;978;48.314;11.562;2023-04-03T09:21:12;20.60;66.50
1956;DHT22;978;48.314;11.562;2023-04-03T09:23:44;20.60;66.40
1956;DHT22;978;48.314;11.562;2023-04-03T09:26:16;20.60;66.70
1956;DHT22;978;48.314;11.562;2023-04-03T09:28:45;20.60;66.20
1956;DHT22;978;48.314;11.562;2023-04-03T09:31:19;20.60;67.50
1956;DHT22;978;48.314;11.562;2023-04-03T09:33:47;20.70;67.60
1956;DHT22;978;48.314;11.562;2023-04-03T09:36:14;20.60;66.70
1956;DHT22;978;48.314;11.562;2023-04-03T09:39:05;20.60;66.50
1956;DHT22;978;48.314;11.562;2023-04-03T09:41:33;20.60;67.00
1956;DHT22;978;48.314;11.562;2023-04-03T09:44:01;20.60;67.20
1956;DHT22;978;48.314;11.562;2023-04-03T09:46:32;20.60;67.30
1956;DHT22;978;48.314;11.562;2023-04-03T09:49:02;20.70;67.40
1956;DHT22;978;48.314;11.562;2023-04-03T09:51:29;20.60;67.00
1956;DHT22;978;48.314;11.562;2023-04-03T09:53:57;20.60;66.90
1956;DHT22;978;48.314;11.562;2023-04-03T09:56:27;20.60;66.20
1956;DHT22;978;48.314;11.562;2023-04-03T09:59:13;20.60;66.20
1956;DHT22;978;48.314;11.562;2023-04-03T10:01:43;20.60;66.30
1956;DHT22;978;48.314;11.562;2023-04-03T10:04:22;20.60;65.70
1956;DHT22;978;48.314;11.562;2023-04-03T10:06:51;20.60;65.70
1956;DHT22;978;48.314;11.562;2023-04-03T10:09:20;20.60;65.80
1956;DHT22;978;48.314;11.562;2023-04-03T10:12:00;20.70;65.40
1956;DHT22;978;48.314;11.562;2023-04-03T10:14:29;20.60;65.00
1956;DHT22;978;48.314;11.562;2023-04-03T10:17:02;20.60;64.90
1956;DHT22;978;48.314;11.562;2023-04-03T10:19:37;20.60;64.90
1956;DHT22;978;48.314;11.562;2023-04-03T10:22:15;20.60;64.60
1956;DHT22;978;48.314;11.562;2023-04-03T10:24:51;20.60;64.80
1956;DHT22;978;48.314;11.562;2023-04-03T10:27:26;20.60;64.70
1956;DHT22;978;48.314;11.562;2023-04-03T10:30:16;20.60;64.60
1956;DHT22;978;48.314;11.562;2023-04-03T10:32:55;20.60;64.50
1956;DHT22;978;48.314;11.562;2023-04-03T10:35:33;20.60;64.30
1956;DHT22;978;48.314;11.562;2023-04-03T10:38:08;20.60;64.40
1956;DHT22;978;48.314;11.562;2023-04-03T10:40:41;20.60;64.30
1956;DHT22;978;48.314;11.562;2023-04-03T10:43:19;20.60;64.20
1956;DHT22;978;48.314;11.562;2023-04-03T10:45:57;20.60;64.10
1956;DHT22;978;48.314;11.562;2023-04-03T10:48:34;20.60;64.10
1956;DHT22;978;48.314;11.562;2023-04-03T10:51:14;20.60;64.00
1956;DHT22;978;48.314;11.562;2023-04-03T10:53:47;20.60;63.80
1956;DHT22;978;48.314;11.562;2023-04-03T10:56:21;20.60;63.90
1956;DHT22;978;48.314;11.562;2023-04-03T10:58:57;20.60;63.90
1956;DHT22;978;48.314;11.562;2023-04-03T11:01:30;20.60;64.00
1956;DHT22;978;48.314;11.562;2023-04-03T11:03:59;20.60;63.70
1956;DHT22;978;48.314;11.562;2023-04-03T11:06:32;20.60;63.60
1956;DHT22;978;48.314;11.562;2023-04-03T11:09:07;20.60;63.50
1956;DHT22;978;48.314;11.562;2023-04-03T11:11:38;20.60;63.40
1956;DHT22;978;48.314;11.562;2023-04-03T11:14:11;20.60;63.30
1956;DHT22;978;48.314;11.562;2023-04-03T11:16:46;20.60;63.40
1956;DHT22;978;48.314;11.562;2023-04-03T11:19:18;20.60;63.20
1956;DHT22;978;48.314;11.562;2023-04-03T11:21:52;20.60;63.10
1956;DHT22;978;48.314;11.562;2023-04-03T11:24:24;20.60;63.10
1956;DHT22;978;48.314;11.562;2023-04-03T11:26:54;20.60;63.10
1956;DHT22;978;48.314;11.562;2023-04-03T11:29:24;20.60;63.00
1956;DHT22;978;48.314;11.562;2023-04-03T11:32:06;20.60;63.10
1956;DHT22;978;48.314;11.562;2023-04-03T11:34:38;20.60;63.00
1956;DHT22;978;48.314;11.562;2023-04-03T11:37:14;20.60;63.00
1956;DHT22;978;48.314;11.562;2023-04-03T11:39:50;20.50;62.80
1956;DHT22;978;48.314;11.562;2023-04-03T11:42:32;20.50;62.90
1956;DHT22;978;48.314;11.562;2023-04-03T11:45:31;20.60;63.00
1956;DHT22;978;48.314;11.562;2023-04-03T11:48:02;20.60;63.20
1956;DHT22;978;48.314;11.562;2023-04-03T11:50:40;20.60;63.20
1956;DHT22;978;48.314;11.562;2023-04-03T11:53:28;20.60;63.20
1956;DHT22;978;48.314;11.562;2023-04-03T11:55:59;20.60;63.30
1956;DHT22;978;48.314;11.562;2023-04-03T11:58:28;20.60;63.40
1956;DHT22;978;48.314;11.562;2023-04-03T12:01:08;20.60;63.40
1956;DHT22;978;48.314;11.562;2023-04-03T12:06:58;20.60;63.40
1956;DHT22;978;48.314;11.562;2023-04-03T12:12:30;20.60;63.40
1956;DHT22;978;48.314;11.562;2023-04-03T12:15:19;20.60;63.40
1956;DHT22;978;48.314;11.562;2023-04-03T12:17:47;20.60;63.50
1956;DHT22;978;48.314;11.562;2023-04-03T12:20:55;20.60;63.40
1956;DHT22;978;48.314;11.562;2023-04-03T12:23:30;20.60;63.50
1956;DHT22;978;48.314;11.562;2023-04-03T12:26:18;20.60;63.60
1956;DHT22;978;48.314;11.562;2023-04-03T12:28:48;20.60;63.60
1956;DHT22;978;48.314;11.562;2023-04-03T12:31:16;20.60;63.60
1956;DHT22;978;48.314;11.562;2023-04-03T12:33:59;20.60;63.50
1956;DHT22;978;48.314;11.562;2023-04-03T12:36:33;20.60;63.60
1956;DHT22;978;48.314;11.562;2023-04-03T12:39:14;20.60;63.60
1956;DHT22;978;48.314;11.562;2023-04-03T12:41:48;20.60;63.60
1956;DHT22;978;48.314;11.562;2023-04-03T12:44:31;20.60;63.70
1956;DHT22;978;48.314;11.562;2023-04-03T12:47:15;20.60;63.60
1956;DHT22;978;48.314;11.562;2023-04-03T12:49:46;20.60;63.70
1956;DHT22;978;48.314;11.562;2023-04-03T12:52:20;20.60;63.70
1956;DHT22;978;48.314;11.562;2023-04-03T12:54:51;20.50;63.60
1956;DHT22;978;48.314;11.562;2023-04-03T12:57:19;20.60;63.70
1956;DHT22;978;48.314;11.562;2023-04-03T12:59:46;20.60;63.70
1956;DHT22;978;48.314;11.562;2023-04-03T13:02:21;20.60;63.70
1956;DHT22;978;48.314;11.562;2023-04-03T13:04:49;20.60;63.80
1956;DHT22;978;48.314;11.562;2023-04-03T13:07:24;20.60;63.70
1956;DHT22;978;48.314;11.562;2023-04-03T13:09:58;20.60;63.80
1956;DHT22;978;48.314;11.562;2023-04-03T13:12:25;20.60;63.80
1956;DHT22;978;48.314;11.562;2023-04-03T13:14:53;20.60;63.80
1956;DHT22;978;48.314;11.562;2023-04-03T13:17:21;20.60;63.80
1956;DHT22;978;48.314;11.562;2023-04-03T13:19:48;20.60;63.90
1956;DHT22;978;48.314;11.562;2023-04-03T13:22:27;20.60;63.90
1956;DHT22;978;48.314;11.562;2023-04-03T13:24:57;20.60;63.80
1956;DHT22;978;48.314;11.562;2023-04-03T13:27:25;20.60;63.80
1956;DHT22;978;48.314;11.562;2023-04-03T13:29:54;20.60;63.80
1956;DHT22;978;48.314;11.562;2023-04-03T13:32:25;20.60;63.70
1956;DHT22;978;48.314;11.562;2023-04-03T13:34:52;20.60;63.70
1956;DHT22;978;48.314;11.562;2023-04-03T13:37:22;20.60;63.90
1956;DHT22;978;48.314;11.562;2023-04-03T13:40:00;20.60;64.50
1956;DHT22;978;48.314;11.562;2023-04-03T13:42:30;20.60;63.90
1956;DHT22;978;48.314;11.562;2023-04-03T13:45:17;20.60;63.90
1956;DHT22;978;48.314;11.562;2023-04-03T13:47:46;20.60;64.00
1956;DHT22;978;48.314;11.562;2023-04-03T13:50:16;20.60;63.90
1956;DHT22;978;48.314;11.562;2023-04-03T13:52:45;20.60;63.90
1956;DHT22;978;48.314;11.562;2023-04-03T13:55:21;20.60;64.50
1956;DHT22;978;48.314;11.562;2023-04-03T13:57:54;20.60;63.90
1956;DHT22;978;48.314;11.562;2023-04-03T14:00:35;20.60;64.00
1956;DHT22;978;48.314;11.562;2023-04-03T14:03:11;20.60;64.30
1956;DHT22;978;48.314;11.562;2023-04-03T14:05:38;20.60;64.40
1956;DHT22;978;48.314;11.562;2023-04-03T14:08:05;20.60;64.60
1956;DHT22;978;48.314;11.562;2023-04-03T14:10:34;20.60;64.70
1956;DHT22;978;48.314;11.562;2023-04-03T14:13:01;20.60;65.10
1956;DHT22;978;48.314;11.562;2023-04-03T14:15:30;20.60;64.80
1956;DHT22;978;48.314;11.562;2023-04-03T14:17:58;20.60;64.60
1956;DHT22;978;48.314;11.562;2023-04-03T14:20:26;20.60;64.70
1956;DHT22;978;48.314;11.562;2023-04-03T14:22:53;20.50;64.70
1956;DHT22;978;48.314;11.562;2023-04-03T14:25:21;20.50;64.70
1956;DHT22;978;48.314;11.562;2023-04-03T14:27:52;20.50;64.70
1956;DHT22;978;48.314;11.562;2023-04-03T14:30:21;20.50;64.70
1956;DHT22;978;48.314;11.562;2023-04-03T14:32:49;20.60;64.70
1956;DHT22;978;48.314;11.562;2023-04-03T14:35:17;20.60;64.70
1956;DHT22;978;48.314;11.562;2023-04-03T14:37:44;20.60;64.80
1956;DHT22;978;48.314;11.562;2023-04-03T14:40:13;20.60;64.80
1956;DHT22;978;48.314;11.562;2023-04-03T14:42:41;20.50;64.70
1956;DHT22;978;48.314;11.562;2023-04-03T14:45:11;20.50;64.80
1956;DHT22;978;48.314;11.562;2023-04-03T14:47:42;20.60;64.80
1956;DHT22;978;48.314;11.562;2023-04-03T14:50:13;20.60;64.90
1956;DHT22;978;48.314;11.562;2023-04-03T14:52:41;20.50;64.90
1956;DHT22;978;48.314;11.562;2023-04-03T14:55:09;20.60;65.00
1956;DHT22;978;48.314;11.562;2023-04-03T14:57:36;20.60;65.10
1956;DHT22;978;48.314;11.562;2023-04-03T15:00:11;20.60;65.10
1956;DHT22;978;48.314;11.562;2023-04-03T15:02:38;20.60;65.10
1956;DHT22;978;48.314;11.562;2023-04-03T15:05:07;20.50;65.10
1956;DHT22;978;48.314;11.562;2023-04-03T15:07:36;20.50;65.10
1956;DHT22;978;48.314;11.562;2023-04-03T15:10:14;20.60;65.30
1956;DHT22;978;48.314;11.562;2023-04-03T15:12:42;20.50;65.20
1956;DHT22;978;48.314;11.562;2023-04-03T15:15:11;20.60;65.40
1956;DHT22;978;48.314;11.562;2023-04-03T15:17:38;20.60;65.60
1956;DHT22;978;48.314;11.562;2023-04-03T15:20:12;20.60;65.50
1956;DHT22;978;48.314;11.562;2023-04-03T15:22:39;20.60;65.50
1956;DHT22;978;48.314;11.562;2023-04-03T15:25:06;20.60;65.50
1956;DHT22;978;48.314;11.562;2023-04-03T15:27:33;20.50;65.50
1956;DHT22;978;48.314;11.562;2023-04-03T15:30:00;20.50;65.50
1956;DHT22;978;48.314;11.562;2023-04-03T15:32:28;20.60;65.60
1956;DHT22;978;48.314;11.562;2023-04-03T15:34:55;20.60;65.60
1956;DHT22;978;48.314;11.562;2023-04-03T15:37:22;20.60;65.60
1956;DHT22;978;48.314;11.562;2023-04-03T15:39:48;20.60;65.70
1956;DHT22;978;48.314;11.562;2023-04-03T15:42:15;20.50;65.60
1956;DHT22;978;48.314;11.562;2023-04-03T15:44:42;20.60;65.70
1956;DHT22;978;48.314;11.562;2023-04-03T15:47:09;20.60;65.80
1956;DHT22;978;48.314;11.562;2023-04-03T15:49:37;20.60;65.70
1956;DHT22;978;48.314;11.562;2023-04-03T15:52:04;20.60;65.80
1956;DHT22;978;48.314;11.562;2023-04-03T15:54:31;20.60;65.70
1956;DHT22;978;48.314;11.562;2023-04-03T15:56:58;20.60;65.70
1956;DHT22;978;48.314;11.562;2023-04-03T15:59:25;20.60;65.80
1956;DHT22;978;48.314;11.562;2023-04-03T16:01:52;20.60;65.80
1956;DHT22;978;48.314;11.562;2023-04-03T16:04:19;20.60;65.80
1956;DHT22;978;48.314;11.562;2023-04-03T16:06:48;20.60;65.90
1956;DHT22;978;48.314;11.562;2023-04-03T16:09:15;20.60;65.90
1956;DHT22;978;48.314;11.562;2023-04-03T16:11:42;20.60;65.90
1956;DHT22;978;48.314;11.562;2023-04-03T16:14:09;20.60;65.70
1956;DHT22;978;48.314;11.562;2023-04-03T16:16:36;20.60;65.50
1956;DHT22;978;48.314;11.562;2023-04-03T16:19:04;20.60;65.70
1956;DHT22;978;48.314;11.562;2023-04-03T16:21:32;20.60;65.70
1956;DHT22;978;48.314;11.562;2023-04-03T16:24:00;20.60;65.70
1956;DHT22;978;48.314;11.562;2023-04-03T16:26:27;20.60;65.70